Time;durP1;ratioP1;P1;durP2;ratioP2;P2;SDS_P1;SDS_P2;PMS_P1;PMS_P2;Temp;Humidity;BMP_temperature;BMP_pressure;BME280_temperature;BME280_humidity;BME280_pressure;Samples;Min_cycle;Max_cycle;Signal;HPM_P1;HPM_P2
2022/02/28 00:00:00;;;;;;;15.13;7.22;;;2.60;99.90;;;;;;5033542;28;20108;-49
2022/02/28 00:02:29;;;;;;;8.73;6.70;;;2.60;99.90;;;;;;5033588;28;20537;-51
2022/02/28 00:04:54;;;;;;;16.55;10.05;;;2.60;99.90;;;;;;5033263;28;20057;-49
2022/02/28 00:07:20;;;;;;;8.80;7.10;;;2.70;99.90;;;;;;5032451;28;20412;-46
2022/02/28 00:09:46;;;;;;;10.25;6.18;;;2.60;99.90;;;;;;5032289;28;20032;-47
2022/02/28 00:12:11;;;;;;;8.98;6.75;;;2.60;99.90;;;;;;5033449;28;20048;-47
2022/02/28 00:14:37;;;;;;;10.57;6.40;;;2.80;99.90;;;;;;5032991;28;20033;-47
2022/02/28 00:17:04;;;;;;;9.25;6.47;;;2.80;99.90;;;;;;5033395;28;20463;-51
2022/02/28 00:19:29;;;;;;;12.13;6.45;;;2.70;99.90;;;;;;5033383;28;20097;-46
2022/02/28 00:21:55;;;;;;;12.63;7.20;;;2.70;99.90;;;;;;5031934;28;20040;-50
2022/02/28 00:24:20;;;;;;;18.65;6.78;;;2.60;99.90;;;;;;5032984;28;20086;-49
2022/02/28 00:26:46;;;;;;;10.20;7.90;;;2.60;99.90;;;;;;5032807;28;20406;-47
2022/02/28 00:29:11;;;;;;;12.63;6.85;;;2.50;99.90;;;;;;5032938;28;20386;-46
2022/02/28 00:31:37;;;;;;;8.13;7.00;;;2.40;99.90;;;;;;5032929;28;20510;-46
2022/02/28 00:34:02;;;;;;;14.55;7.55;;;2.30;99.90;;;;;;5032646;28;20084;-46
2022/02/28 00:36:28;;;;;;;12.93;6.50;;;2.40;99.90;;;;;;5033048;28;20401;-46
2022/02/28 00:38:54;;;;;;;15.15;6.05;;;2.40;99.90;;;;;;5032853;28;20025;-46
2022/02/28 00:41:20;;;;;;;15.38;7.30;;;2.30;99.90;;;;;;5032794;28;20547;-49
2022/02/28 00:43:45;;;;;;;11.98;6.40;;;2.30;99.90;;;;;;5031821;28;20034;-49
2022/02/28 00:46:11;;;;;;;9.93;6.43;;;2.20;99.90;;;;;;5031231;28;20184;-47
2022/02/28 00:48:36;;;;;;;11.07;6.30;;;2.20;99.90;;;;;;5030160;28;20033;-48
2022/02/28 00:51:03;;;;;;;10.18;6.50;;;2.20;99.90;;;;;;5031603;28;20493;-46
2022/02/28 00:53:28;;;;;;;12.35;6.75;;;2.20;99.90;;;;;;5031556;28;20033;-48
2022/02/28 00:55:54;;;;;;;8.43;6.20;;;2.20;99.90;;;;;;5032506;28;20381;-46
2022/02/28 00:58:20;;;;;;;10.13;6.50;;;2.30;99.90;;;;;;5032488;28;20396;-48
2022/02/28 01:00:45;;;;;;;13.45;6.70;;;2.20;99.90;;;;;;5032110;28;20485;-46
2022/02/28 01:03:11;;;;;;;9.02;6.55;;;2.10;99.90;;;;;;5032195;28;20029;-49
2022/02/28 01:05:36;;;;;;;10.38;6.90;;;2.10;99.90;;;;;;5032299;28;20031;-48
2022/02/28 01:08:03;;;;;;;10.10;6.22;;;2.10;99.90;;;;;;5032793;28;20475;-45
2022/02/28 01:10:29;;;;;;;12.32;7.30;;;2.10;99.90;;;;;;5032147;28;20021;-48
2022/02/28 01:12:55;;;;;;;9.05;6.70;;;2.00;99.90;;;;;;5031888;28;20033;-46
2022/02/28 01:15:21;;;;;;;8.07;6.53;;;2.00;99.90;;;;;;5032309;28;20021;-50
2022/02/28 01:17:47;;;;;;;10.25;6.38;;;2.00;99.90;;;;;;5032232;28;20029;-52
2022/02/28 01:20:13;;;;;;;11.80;6.80;;;2.10;99.90;;;;;;5031944;28;20032;-44
2022/02/28 01:22:39;;;;;;;14.40;7.90;;;2.20;99.90;;;;;;5032416;28;20094;-45
2022/02/28 01:25:07;;;;;;;10.60;7.25;;;2.30;99.90;;;;;;5030479;28;20359;-47
2022/02/28 01:27:32;;;;;;;11.38;7.38;;;2.40;99.90;;;;;;5030666;28;20120;-46
2022/02/28 01:29:58;;;;;;;11.55;6.47;;;2.40;99.90;;;;;;5031998;28;20108;-46
2022/02/28 01:32:24;;;;;;;13.85;7.25;;;2.50;99.90;;;;;;5031914;28;20030;-47
2022/02/28 01:34:49;;;;;;;12.20;6.65;;;2.50;99.90;;;;;;5031536;28;20444;-45
2022/02/28 01:37:15;;;;;;;10.95;6.20;;;2.50;99.90;;;;;;5014240;28;20116;-50
2022/02/28 01:39:44;;;;;;;10.10;7.22;;;2.50;99.90;;;;;;5031669;28;20026;-47
2022/02/28 01:42:10;;;;;;;9.38;7.28;;;2.40;99.90;;;;;;5031649;28;20030;-45
2022/02/28 01:44:36;;;;;;;12.02;7.00;;;2.40;99.90;;;;;;5031620;28;20021;-46
2022/02/28 01:47:02;;;;;;;9.43;6.38;;;2.30;99.90;;;;;;5031803;28;20033;-47
2022/02/28 01:49:28;;;;;;;11.88;6.82;;;2.30;99.90;;;;;;5031563;28;20018;-46
2022/02/28 01:51:53;;;;;;;14.57;6.93;;;2.20;99.90;;;;;;5031713;28;20045;-47
2022/02/28 01:54:19;;;;;;;12.73;8.30;;;2.10;99.90;;;;;;5032207;28;20045;-47
2022/02/28 01:56:44;;;;;;;10.15;7.25;;;2.10;99.90;;;;;;5031670;28;20448;-46
2022/02/28 01:59:11;;;;;;;10.13;6.10;;;2.10;99.90;;;;;;5029901;28;20037;-49
2022/02/28 02:01:37;;;;;;;12.02;7.32;;;2.00;99.90;;;;;;5029909;28;20083;-47
2022/02/28 02:04:04;;;;;;;9.63;7.05;;;1.90;99.90;;;;;;5031077;28;20037;-48
2022/02/28 02:06:29;;;;;;;12.57;7.75;;;1.90;99.90;;;;;;5031597;28;20021;-46
2022/02/28 02:08:55;;;;;;;13.18;7.70;;;1.80;99.90;;;;;;5031423;28;20108;-49
2022/02/28 02:11:21;;;;;;;12.07;7.85;;;1.70;99.90;;;;;;5031566;28;20481;-45
2022/02/28 02:13:48;;;;;;;12.38;8.10;;;1.60;99.90;;;;;;5031533;28;20494;-49
2022/02/28 02:16:15;;;;;;;13.80;7.85;;;1.50;99.90;;;;;;5031410;28;20400;-47
2022/02/28 02:18:40;;;;;;;11.85;8.45;;;1.40;99.90;;;;;;5031313;28;20025;-46
2022/02/28 02:21:06;;;;;;;10.57;7.22;;;1.30;99.90;;;;;;5029975;28;20397;-48
2022/02/28 02:23:32;;;;;;;16.92;8.18;;;1.30;99.90;;;;;;5031054;28;20018;-47
2022/02/28 02:25:59;;;;;;;11.60;7.38;;;1.20;99.90;;;;;;5031382;28;20025;-44
2022/02/28 02:28:25;;;;;;;11.20;7.78;;;1.20;99.90;;;;;;5031402;28;20022;-48
2022/02/28 02:30:54;;;;;;;12.60;8.15;;;1.20;99.90;;;;;;5030191;28;20400;-46
2022/02/28 02:33:20;;;;;;;16.40;8.25;;;1.30;99.90;;;;;;5029444;28;20089;-47
2022/02/28 02:36:06;;;;;;;14.73;7.40;;;1.30;99.90;;;;;;5031416;28;20032;-48
2022/02/28 02:38:34;;;;;;;11.60;7.78;;;1.30;99.90;;;;;;5031306;28;20037;-47
2022/02/28 02:41:00;;;;;;;10.50;7.82;;;1.30;99.90;;;;;;5031171;28;20120;-44
2022/02/28 02:43:26;;;;;;;16.48;7.82;;;1.20;99.90;;;;;;5030795;28;20033;-46
2022/02/28 02:45:52;;;;;;;13.98;8.85;;;1.10;99.90;;;;;;5031135;28;20041;-49
2022/02/28 02:48:24;;;;;;;11.43;7.53;;;1.10;99.90;;;;;;5029871;28;20036;-48
2022/02/28 02:50:50;;;;;;;10.93;7.53;;;1.20;99.90;;;;;;5031024;28;20388;-45
2022/02/28 02:53:16;;;;;;;12.68;7.72;;;1.20;99.90;;;;;;5030532;28;20040;-47
2022/02/28 02:55:42;;;;;;;11.20;7.35;;;1.20;99.90;;;;;;5031125;28;20026;-47
2022/02/28 02:58:08;;;;;;;12.98;7.68;;;1.20;99.90;;;;;;5030999;28;20041;-47
2022/02/28 03:00:35;;;;;;;12.57;7.38;;;1.30;99.90;;;;;;5030763;28;20401;-46
2022/02/28 03:03:00;;;;;;;13.25;7.90;;;1.30;99.90;;;;;;5030758;28;20026;-51
2022/02/28 03:05:27;;;;;;;12.60;7.88;;;1.20;99.90;;;;;;5031075;28;20017;-48
2022/02/28 03:07:53;;;;;;;15.48;7.80;;;1.20;99.90;;;;;;5030999;28;20033;-46
2022/02/28 03:10:18;;;;;;;11.18;7.18;;;1.10;99.90;;;;;;5031470;28;20548;-45
2022/02/28 03:12:44;;;;;;;11.60;7.63;;;1.10;99.90;;;;;;5034381;28;20025;-48
2022/02/28 03:15:10;;;;;;;11.77;8.45;;;1.10;99.90;;;;;;5034442;28;20100;-50
2022/02/28 03:17:36;;;;;;;10.77;8.25;;;1.10;99.90;;;;;;5034665;28;20022;-46
2022/02/28 03:20:03;;;;;;;15.75;8.20;;;1.00;99.90;;;;;;5034484;28;20099;-47
2022/02/28 03:22:28;;;;;;;12.23;7.93;;;1.00;99.90;;;;;;5034161;28;20409;-48
2022/02/28 03:24:54;;;;;;;10.60;7.00;;;0.90;99.90;;;;;;5032615;28;20037;-48
2022/02/28 03:27:19;;;;;;;18.02;8.10;;;0.80;99.90;;;;;;5033128;28;20038;-49
2022/02/28 03:29:45;;;;;;;14.77;8.25;;;0.80;99.90;;;;;;5034199;28;20029;-46
2022/02/28 03:32:11;;;;;;;12.02;8.00;;;0.80;99.90;;;;;;5034282;28;20040;-46
2022/02/28 03:34:36;;;;;;;16.73;8.38;;;0.80;99.90;;;;;;5032447;28;20018;-48
2022/02/28 03:37:02;;;;;;;15.75;8.50;;;0.80;99.90;;;;;;5034158;28;20029;-48
2022/02/28 03:39:27;;;;;;;12.27;8.05;;;0.70;99.90;;;;;;5033971;28;20393;-48
2022/02/28 03:41:53;;;;;;;12.98;8.20;;;0.70;99.90;;;;;;5034180;28;20026;-47
2022/02/28 03:44:20;;;;;;;11.25;8.02;;;0.60;99.90;;;;;;5033791;28;20017;-48
2022/02/28 03:46:45;;;;;;;12.63;7.80;;;0.50;99.90;;;;;;5034132;28;20045;-46
2022/02/28 03:49:11;;;;;;;12.70;8.50;;;0.50;99.90;;;;;;5034035;28;20049;-48
2022/02/28 03:51:36;;;;;;;13.73;8.05;;;0.50;99.90;;;;;;5034256;28;20034;-45
2022/02/28 03:54:02;;;;;;;15.00;7.95;;;0.50;99.90;;;;;;5033451;28;20033;-47
2022/02/28 03:56:27;;;;;;;13.43;8.25;;;0.60;99.90;;;;;;5033992;28;20036;-48
2022/02/28 03:58:53;;;;;;;17.85;8.15;;;0.60;99.90;;;;;;5033876;28;20416;-48
2022/02/28 04:01:18;;;;;;;13.95;8.85;;;0.60;99.90;;;;;;5033621;28;20032;-47
2022/02/28 04:03:44;;;;;;;12.70;8.23;;;0.60;99.90;;;;;;5033397;28;20033;-46
2022/02/28 04:06:10;;;;;;;12.80;8.10;;;0.50;99.90;;;;;;5033692;28;20025;-47
2022/02/28 04:08:36;;;;;;;17.52;8.75;;;0.50;99.90;;;;;;5033788;28;20054;-48
2022/02/28 04:11:02;;;;;;;13.68;8.38;;;0.50;99.90;;;;;;5033630;28;20401;-48
2022/02/28 04:13:27;;;;;;;12.82;8.70;;;0.50;99.90;;;;;;5033345;28;20546;-48
2022/02/28 04:15:53;;;;;;;11.82;7.70;;;0.50;99.90;;;;;;5032611;28;20124;-48
2022/02/28 04:18:18;;;;;;;16.67;9.50;;;0.50;99.90;;;;;;5033634;28;20031;-48
2022/02/28 04:20:44;;;;;;;12.35;7.85;;;0.40;99.90;;;;;;5033311;28;20033;-49
2022/02/28 04:23:10;;;;;;;16.50;8.55;;;0.40;99.90;;;;;;5033007;28;20111;-46
2022/02/28 04:25:36;;;;;;;15.05;9.05;;;0.50;99.90;;;;;;5033460;28;20057;-46
2022/02/28 04:28:01;;;;;;;19.60;9.00;;;0.40;99.90;;;;;;5032295;28;20057;-46
2022/02/28 04:30:27;;;;;;;13.35;7.35;;;0.40;99.90;;;;;;5032114;28;20021;-47
2022/02/28 04:32:52;;;;;;;14.50;9.07;;;0.40;99.90;;;;;;5033209;28;20037;-48
2022/02/28 04:35:18;;;;;;;10.75;7.28;;;0.30;99.90;;;;;;5033193;28;20044;-47
2022/02/28 04:37:46;;;;;;;17.35;9.15;;;0.30;99.90;;;;;;5033496;28;20100;-46
2022/02/28 04:40:12;;;;;;;15.75;9.77;;;0.30;99.90;;;;;;5033002;28;20113;-47
2022/02/28 04:42:37;;;;;;;13.50;8.13;;;0.30;99.90;;;;;;5032869;28;20066;-49
2022/02/28 04:45:04;;;;;;;13.32;7.93;;;0.30;99.90;;;;;;5032847;28;20060;-52
2022/02/28 04:47:30;;;;;;;12.05;7.72;;;0.30;99.90;;;;;;5032709;28;20481;-49
2022/02/28 04:49:55;;;;;;;11.73;8.40;;;0.20;99.90;;;;;;5032552;28;20060;-48
2022/02/28 04:52:21;;;;;;;15.00;8.30;;;0.20;99.90;;;;;;5032863;28;20025;-46
2022/02/28 04:54:46;;;;;;;10.82;7.25;;;0.30;99.90;;;;;;5032223;28;20108;-48
2022/02/28 04:57:12;;;;;;;12.48;8.20;;;0.30;99.90;;;;;;5032519;28;20040;-48
2022/02/28 04:59:37;;;;;;;16.50;9.63;;;0.40;99.90;;;;;;5032440;28;20037;-49
2022/02/28 05:02:03;;;;;;;12.02;8.15;;;0.30;99.90;;;;;;5032109;28;20109;-50
2022/02/28 05:04:29;;;;;;;18.33;8.90;;;0.30;99.90;;;;;;5032260;28;20439;-46
2022/02/28 05:06:55;;;;;;;16.88;10.00;;;0.30;99.90;;;;;;5032431;28;20052;-48
2022/02/28 05:09:20;;;;;;;16.30;8.88;;;0.30;99.90;;;;;;5032340;28;20488;-46
2022/02/28 05:11:46;;;;;;;14.73;9.35;;;0.30;99.90;;;;;;5032677;28;20033;-45
2022/02/28 05:14:13;;;;;;;13.25;8.60;;;0.40;99.90;;;;;;5031861;28;20034;-48
2022/02/28 05:16:41;;;;;;;16.20;9.38;;;0.40;99.90;;;;;;5032134;28;20508;-49
2022/02/28 05:19:06;;;;;;;17.33;10.02;;;0.40;99.90;;;;;;5032089;28;20048;-47
2022/02/28 05:21:32;;;;;;;17.33;9.77;;;0.40;99.90;;;;;;5032107;28;20033;-49
2022/02/28 05:23:57;;;;;;;12.18;9.80;;;0.40;99.90;;;;;;5031722;28;20481;-47
2022/02/28 05:26:23;;;;;;;15.80;9.00;;;0.50;99.90;;;;;;5032011;28;20021;-46
2022/02/28 05:28:48;;;;;;;14.30;9.48;;;0.50;99.90;;;;;;5032005;28;20029;-46
2022/02/28 05:31:14;;;;;;;19.38;10.45;;;0.50;99.90;;;;;;5030648;28;20675;-46
2022/02/28 05:33:39;;;;;;;20.50;9.90;;;0.50;99.90;;;;;;5029817;28;20079;-46
2022/02/28 05:36:05;;;;;;;15.00;9.73;;;0.50;99.90;;;;;;5030732;28;20025;-47
2022/02/28 05:38:31;;;;;;;17.27;9.55;;;0.40;99.90;;;;;;5031902;28;20029;-48
2022/02/28 05:40:57;;;;;;;15.18;10.38;;;0.40;99.90;;;;;;5031720;28;20048;-49
2022/02/28 05:43:23;;;;;;;14.88;9.20;;;0.30;99.90;;;;;;5031574;28;20026;-48
2022/02/28 05:45:48;;;;;;;15.13;10.93;;;0.20;99.90;;;;;;5031730;28;20040;-47
2022/02/28 05:48:14;;;;;;;15.40;10.18;;;0.20;99.90;;;;;;5031857;28;20108;-47
2022/02/28 05:50:39;;;;;;;14.98;10.85;;;0.20;99.90;;;;;;5031671;28;20076;-48
2022/02/28 05:53:05;;;;;;;23.58;11.57;;;0.10;99.90;;;;;;5031157;28;20041;-48
2022/02/28 05:55:30;;;;;;;17.13;10.93;;;0.10;99.90;;;;;;5031726;28;20465;-48
2022/02/28 05:57:56;;;;;;;18.55;9.43;;;0.10;99.90;;;;;;5031560;28;20045;-45
2022/02/28 06:00:22;;;;;;;13.60;7.88;;;0.00;99.90;;;;;;5030849;28;20075;-46
2022/02/28 06:02:49;;;;;;;16.63;8.80;;;0.00;99.90;;;;;;5031386;28;20091;-51
2022/02/28 06:05:15;;;;;;;14.57;8.82;;;0.00;99.90;;;;;;5031470;28;20013;-45
2022/02/28 06:07:40;;;;;;;16.10;8.98;;;0.00;99.90;;;;;;5033005;28;20033;-50
2022/02/28 06:10:06;;;;;;;15.60;8.85;;;0.10;99.90;;;;;;5050100;28;20370;-52
2022/02/28 06:12:31;;;;;;;12.88;9.02;;;0.10;99.90;;;;;;5051361;28;20036;-48
2022/02/28 06:14:57;;;;;;;18.50;9.60;;;0.10;99.90;;;;;;5051057;28;20021;-49
2022/02/28 06:17:22;;;;;;;14.15;8.55;;;0.10;99.90;;;;;;5050086;28;20029;-48
2022/02/28 06:19:48;;;;;;;14.60;9.50;;;0.20;99.90;;;;;;5051173;28;20513;-47
2022/02/28 06:22:14;;;;;;;15.73;9.85;;;0.30;99.90;;;;;;5051057;28;20029;-53
2022/02/28 06:24:40;;;;;;;15.95;9.23;;;0.30;99.90;;;;;;5036239;28;20021;-47
2022/02/28 06:27:05;;;;;;;13.60;10.25;;;0.30;99.90;;;;;;5031672;28;20401;-46
2022/02/28 06:29:31;;;;;;;15.77;10.82;;;0.30;99.90;;;;;;5035610;28;20017;-47
2022/02/28 06:31:56;;;;;;;19.92;11.27;;;0.40;99.90;;;;;;5050879;28;20090;-47
2022/02/28 06:34:22;;;;;;;17.92;11.10;;;0.50;99.90;;;;;;5051149;28;20027;-49
2022/02/28 06:36:47;;;;;;;16.55;10.40;;;0.60;99.90;;;;;;5036858;28;20057;-48
2022/02/28 06:39:14;;;;;;;19.10;10.05;;;0.70;99.90;;;;;;5031080;28;20406;-47
2022/02/28 06:41:40;;;;;;;15.90;9.93;;;0.80;99.90;;;;;;5031292;28;20400;-48
2022/02/28 06:44:06;;;;;;;16.85;9.90;;;0.90;99.90;;;;;;5031655;28;20033;-50
2022/02/28 06:46:33;;;;;;;18.40;9.98;;;1.00;99.90;;;;;;5052061;28;20029;-57
2022/02/28 06:48:58;;;;;;;20.98;11.43;;;1.10;99.90;;;;;;5035444;28;20036;-47
2022/02/28 06:51:24;;;;;;;12.15;8.77;;;1.10;99.90;;;;;;5047812;28;20029;-48
2022/02/28 06:53:49;;;;;;;15.10;9.98;;;1.20;99.90;;;;;;5035659;28;20068;-50
2022/02/28 06:56:15;;;;;;;20.60;10.30;;;1.20;99.90;;;;;;5041623;28;20025;-49
2022/02/28 06:58:41;;;;;;;14.60;9.68;;;1.30;99.90;;;;;;5055258;28;20060;-48
2022/02/28 07:01:07;;;;;;;17.55;10.10;;;1.30;99.90;;;;;;5038118;28;20109;-47
2022/02/28 07:03:33;;;;;;;12.60;9.20;;;1.60;99.90;;;;;;5034529;28;20021;-51
2022/02/28 07:05:58;;;;;;;16.95;9.40;;;1.70;99.90;;;;;;5034737;28;20022;-48
2022/02/28 07:08:25;;;;;;;15.63;10.02;;;1.80;99.90;;;;;;5033332;28;20075;-48
2022/02/28 07:10:52;;;;;;;18.48;8.85;;;2.30;99.90;;;;;;5034554;28;20029;-48
2022/02/28 07:13:18;;;;;;;20.35;8.93;;;2.80;99.90;;;;;;5034301;28;20033;-48
2022/02/28 07:15:45;;;;;;;14.95;9.27;;;3.30;99.90;;;;;;5032809;28;20056;-45
2022/02/28 07:18:12;;;;;;;16.05;9.73;;;3.70;99.90;;;;;;5034384;28;20112;-53
2022/02/28 07:20:38;;;;;;;17.95;9.95;;;4.00;99.90;;;;;;5034102;28;20481;-49
2022/02/28 07:23:05;;;;;;;14.70;9.65;;;4.00;99.90;;;;;;5033751;28;20031;-47
2022/02/28 07:25:32;;;;;;;11.93;8.98;;;4.20;99.90;;;;;;5048409;28;20025;-48
2022/02/28 07:27:58;;;;;;;12.82;8.68;;;4.30;99.90;;;;;;5054084;28;20539;-53
2022/02/28 07:30:24;;;;;;;13.98;8.68;;;4.60;99.60;;;;;;5053696;28;20032;-51
2022/02/28 07:32:50;;;;;;;12.90;9.20;;;4.90;98.80;;;;;;5053757;28;20029;-44
2022/02/28 07:35:15;;;;;;;15.27;9.30;;;5.00;98.40;;;;;;5052308;28;20032;-46
2022/02/28 07:37:41;;;;;;;13.00;9.27;;;5.20;98.30;;;;;;5054095;28;20488;-43
2022/02/28 07:40:09;;;;;;;14.65;9.20;;;5.50;97.50;;;;;;5043610;28;20079;-51
2022/02/28 07:42:35;;;;;;;14.43;9.32;;;5.20;97.50;;;;;;5035183;28;20401;-46
2022/02/28 07:45:01;;;;;;;14.35;9.30;;;4.70;98.50;;;;;;5044645;28;20014;-46
2022/02/28 07:47:27;;;;;;;17.23;10.15;;;4.10;99.90;;;;;;5034782;28;20029;-48
2022/02/28 07:49:52;;;;;;;15.13;9.82;;;3.50;99.90;;;;;;5045837;28;20033;-46
2022/02/28 07:52:18;;;;;;;14.27;10.77;;;3.10;99.90;;;;;;5039734;28;20031;-47
2022/02/28 07:54:43;;;;;;;19.65;11.48;;;2.70;99.90;;;;;;5052328;23;20524;-50
2022/02/28 07:57:09;;;;;;;17.33;10.00;;;2.40;99.90;;;;;;5011567;28;20022;-48
2022/02/28 07:59:34;;;;;;;13.65;10.07;;;2.30;99.90;;;;;;4997349;28;20034;-49
2022/02/28 08:02:00;;;;;;;16.67;10.07;;;2.20;99.90;;;;;;5010668;28;20034;-46
2022/02/28 08:04:25;;;;;;;15.07;10.75;;;2.30;99.90;;;;;;5011907;28;20493;-47
2022/02/28 08:06:51;;;;;;;20.63;11.82;;;2.30;99.90;;;;;;5013366;28;20113;-48
2022/02/28 08:09:18;;;;;;;20.70;10.63;;;2.30;99.90;;;;;;4994192;28;20391;-48
2022/02/28 08:11:44;;;;;;;19.85;10.75;;;2.30;99.90;;;;;;5000512;28;20025;-49
2022/02/28 08:14:09;;;;;;;14.88;10.52;;;2.40;99.90;;;;;;5011923;28;20021;-47
2022/02/28 08:16:35;;;;;;;16.50;10.23;;;2.50;99.90;;;;;;5013405;28;20401;-51
2022/02/28 08:19:01;;;;;;;15.25;10.32;;;2.60;99.90;;;;;;5008868;28;20423;-49
2022/02/28 08:21:26;;;;;;;17.15;10.32;;;2.60;99.90;;;;;;4993838;28;20213;-50
2022/02/28 08:23:52;;;;;;;18.02;10.23;;;2.70;99.90;;;;;;4999654;28;20097;-48
2022/02/28 08:26:17;;;;;;;20.52;11.02;;;2.70;99.90;;;;;;5013018;28;20022;-47
2022/02/28 08:28:43;;;;;;;15.80;9.85;;;2.80;99.90;;;;;;5013065;28;20458;-50
2022/02/28 08:31:08;;;;;;;16.10;10.32;;;2.80;99.90;;;;;;5013142;28;20037;-48
2022/02/28 08:33:34;;;;;;;17.55;9.98;;;2.80;99.90;;;;;;5012297;28;20096;-49
2022/02/28 08:35:59;;;;;;;17.45;10.50;;;2.90;99.90;;;;;;5008606;28;20639;-49
2022/02/28 08:38:25;;;;;;;20.80;10.82;;;3.00;99.90;;;;;;5013118;28;20036;-51
2022/02/28 08:40:50;;;;;;;16.45;10.38;;;3.20;99.90;;;;;;5008000;28;20035;-49
2022/02/28 08:43:16;;;;;;;17.45;10.35;;;3.10;99.90;;;;;;5012577;28;20026;-48
2022/02/28 08:45:41;;;;;;;17.15;10.55;;;3.20;99.90;;;;;;5012852;28;20394;-48
2022/02/28 08:48:07;;;;;;;18.10;11.25;;;3.30;99.90;;;;;;5012687;28;20030;-43
2022/02/28 08:50:32;;;;;;;17.83;10.90;;;3.30;99.90;;;;;;5011549;28;20124;-48
2022/02/28 08:52:58;;;;;;;18.05;10.63;;;3.20;99.90;;;;;;5010507;28;20026;-44
2022/02/28 08:55:25;;;;;;;17.17;11.85;;;3.20;99.90;;;;;;5012292;28;20079;-50
2022/02/28 08:57:50;;;;;;;16.63;11.80;;;3.20;99.90;;;;;;5011858;28;20026;-50
2022/02/28 09:00:16;;;;;;;19.90;10.95;;;3.30;99.90;;;;;;4993908;28;20037;-51
2022/02/28 09:02:42;;;;;;;14.25;10.20;;;3.40;99.90;;;;;;5010240;28;20037;-45
2022/02/28 09:05:09;;;;;;;18.23;10.93;;;3.50;99.90;;;;;;4993040;28;20051;-49
2022/02/28 09:07:35;;;;;;;17.40;10.57;;;3.70;99.90;;;;;;4999468;28;20080;-47
2022/02/28 09:10:00;;;;;;;18.13;10.68;;;3.70;99.90;;;;;;5012151;28;20034;-54
2022/02/28 09:12:27;;;;;;;15.23;10.55;;;3.80;99.90;;;;;;5011661;28;20104;-53
2022/02/28 09:14:52;;;;;;;17.85;10.80;;;3.90;99.90;;;;;;5010380;28;20029;-49
2022/02/28 09:17:18;;;;;;;18.50;12.32;;;3.90;99.90;;;;;;5009163;28;20084;-52
2022/02/28 09:19:43;;;;;;;18.05;10.60;;;3.90;99.90;;;;;;4997787;28;20026;-52
2022/02/28 09:22:09;;;;;;;16.15;10.32;;;4.00;99.90;;;;;;5011477;28;20037;-48
2022/02/28 09:24:34;;;;;;;17.27;10.85;;;4.20;99.90;;;;;;5012435;28;20026;-44
2022/02/28 09:27:01;;;;;;;18.48;10.70;;;4.30;99.90;;;;;;5000300;28;20116;-47
2022/02/28 09:29:29;;;;;;;19.48;11.52;;;4.40;99.90;;;;;;5011516;28;20113;-46
2022/02/28 09:31:58;;;;;;;16.98;9.73;;;4.60;99.90;;;;;;5009293;28;20022;-49
2022/02/28 09:34:23;;;;;;;15.02;9.77;;;5.50;99.20;;;;;;4992300;28;20027;-47
2022/02/28 09:36:51;;;;;;;22.67;10.57;;;6.70;96.80;;;;;;4991877;28;20463;-48
2022/02/28 09:39:19;;;;;;;15.13;10.30;;;7.90;95.10;;;;;;4990772;28;20026;-45
2022/02/28 09:41:46;;;;;;;17.05;9.25;;;9.10;92.00;;;;;;4989012;28;20023;-47
2022/02/28 09:44:15;;;;;;;12.27;9.35;;;10.10;86.20;;;;;;4992966;28;20033;-50
2022/02/28 09:46:42;;;;;;;12.32;9.60;;;10.30;82.10;;;;;;4996672;28;20034;-45
2022/02/28 09:49:08;;;;;;;11.80;9.00;;;10.60;81.70;;;;;;5009650;28;20052;-44
2022/02/28 09:51:34;;;;;;;14.85;10.32;;;10.60;79.80;;;;;;5007591;28;20018;-45
2022/02/28 09:54:00;;;;;;;14.27;9.77;;;10.40;80.20;;;;;;5006546;28;20033;-39
2022/02/28 09:56:26;;;;;;;12.20;9.30;;;10.50;79.70;;;;;;5011276;28;20100;-45
2022/02/28 09:58:52;;;;;;;12.93;9.52;;;11.00;75.60;;;;;;5011348;28;20030;-47
2022/02/28 10:01:17;;;;;;;13.68;9.90;;;10.90;75.90;;;;;;5012055;28;20088;-46
2022/02/28 10:03:43;;;;;;;15.90;9.70;;;10.40;77.70;;;;;;5011420;28;20533;-45
2022/02/28 10:06:08;;;;;;;16.17;9.88;;;10.60;77.20;;;;;;5010353;28;20113;-47
2022/02/28 10:08:43;;;;;;;15.10;9.43;;;10.70;76.20;;;;;;5011684;28;20432;-45
2022/02/28 10:11:24;;;;;;;16.52;9.88;;;10.40;77.40;;;;;;5011704;28;20576;-45
2022/02/28 10:13:51;;;;;;;15.18;9.95;;;10.30;78.80;;;;;;5010605;28;20038;-49
2022/02/28 10:16:37;;;;;;;21.75;10.23;;;10.20;78.00;;;;;;5011447;28;20537;-46
2022/02/28 10:19:26;;;;;;;16.02;9.88;;;9.80;79.80;;;;;;5010383;28;20424;-47
2022/02/28 10:21:55;;;;;;;15.50;10.27;;;9.80;80.20;;;;;;5015679;28;20088;-41
2022/02/28 10:24:33;;;;;;;16.85;11.30;;;9.90;79.00;;;;;;5015395;28;20084;-50
2022/02/28 10:27:00;;;;;;;15.98;9.55;;;9.80;79.10;;;;;;5014942;28;20109;-45
2022/02/28 10:29:27;;;;;;;19.80;10.63;;;9.70;77.60;;;;;;5014001;28;20032;-40
2022/02/28 10:31:58;;;;;;;14.40;9.75;;;9.70;79.70;;;;;;5013439;28;20030;-49
2022/02/28 10:34:25;;;;;;;20.63;10.85;;;9.60;77.80;;;;;;5015378;28;20129;-48
2022/02/28 10:36:59;;;;;;;12.90;9.75;;;9.60;79.60;;;;;;5016508;28;20034;-46
2022/02/28 10:39:29;;;;;;;12.83;9.70;;;9.70;77.30;;;;;;5015829;28;20026;-49
2022/02/28 10:41:58;;;;;;;15.90;9.85;;;9.50;78.20;;;;;;5015336;28;20022;-46
2022/02/28 10:44:24;;;;;;;14.50;10.00;;;9.50;79.30;;;;;;5015257;28;20025;-46
2022/02/28 10:46:50;;;;;;;22.95;10.75;;;9.70;78.10;;;;;;5015022;28;20033;-44
2022/02/28 10:49:20;;;;;;;16.67;10.45;;;9.60;79.40;;;;;;5014012;28;20076;-46
2022/02/28 10:51:52;;;;;;;15.35;10.82;;;9.70;80.70;;;;;;5015377;28;20018;-46
2022/02/28 10:54:25;;;;;;;14.82;9.80;;;9.70;79.00;;;;;;5015936;28;20037;-43
2022/02/28 10:56:56;;;;;;;16.80;11.20;;;9.80;78.40;;;;;;5016687;28;20370;-45
2022/02/28 10:59:24;;;;;;;19.08;10.27;;;9.80;80.00;;;;;;5015466;28;20084;-44
2022/02/28 11:01:50;;;;;;;16.30;10.02;;;9.70;78.20;;;;;;5009888;28;20029;-49
2022/02/28 11:04:35;;;;;;;17.55;11.75;;;9.50;79.90;;;;;;5013976;28;20026;-51
2022/02/28 11:07:01;;;;;;;20.27;10.88;;;9.60;79.10;;;;;;5012097;28;20489;-47
2022/02/28 11:09:36;;;;;;;28.85;11.52;;;9.60;78.70;;;;;;5014035;28;20037;-46
2022/02/28 11:12:25;;;;;;;16.13;11.02;;;9.20;79.90;;;;;;5015238;28;20036;-40
2022/02/28 11:14:53;;;;;;;16.75;10.93;;;8.90;80.30;;;;;;5014918;28;20061;-43
2022/02/28 11:17:21;;;;;;;17.30;11.10;;;8.70;81.70;;;;;;5015442;28;20033;-44
2022/02/28 11:19:49;;;;;;;14.13;10.43;;;8.60;83.00;;;;;;5014996;28;20029;-45
2022/02/28 11:22:14;;;;;;;16.25;11.98;;;8.60;83.40;;;;;;5014705;28;20037;-45
2022/02/28 11:24:40;;;;;;;19.67;10.85;;;8.50;82.80;;;;;;5014500;28;20381;-42
2022/02/28 11:27:06;;;;;;;14.45;10.30;;;8.50;84.10;;;;;;5014563;28;20026;-41
2022/02/28 11:29:32;;;;;;;12.73;9.65;;;8.50;84.70;;;;;;5013453;28;20030;-44
2022/02/28 11:31:58;;;;;;;14.23;8.95;;;8.40;82.30;;;;;;5014794;28;20025;-46
2022/02/28 11:34:24;;;;;;;15.05;10.07;;;8.60;82.20;;;;;;5014869;28;20366;-45
2022/02/28 11:36:57;;;;;;;20.02;11.55;;;8.70;79.90;;;;;;5015023;28;20030;-41
2022/02/28 11:39:35;;;;;;;14.73;9.75;;;8.70;79.60;;;;;;5015108;28;20034;-46
2022/02/28 11:42:02;;;;;;;14.30;9.45;;;8.80;78.90;;;;;;5014901;28;20025;-45
2022/02/28 11:44:28;;;;;;;12.88;9.57;;;8.80;79.90;;;;;;5015198;28;20426;-49
2022/02/28 11:47:01;;;;;;;15.25;10.63;;;8.80;79.00;;;;;;5014301;28;20026;-43
2022/02/28 11:49:42;;;;;;;13.70;8.82;;;8.70;78.50;;;;;;5013424;28;20504;-45
2022/02/28 11:52:36;;;;;;;14.80;10.35;;;8.60;79.40;;;;;;5013977;28;20033;-44
2022/02/28 11:55:11;;;;;;;14.05;9.18;;;8.70;80.00;;;;;;5016110;28;20030;-42
2022/02/28 11:57:58;;;;;;;18.33;10.00;;;8.70;79.70;;;;;;5007706;28;20088;-43
2022/02/28 12:00:46;;;;;;;12.27;9.30;;;8.80;79.40;;;;;;5009738;28;20022;-41
2022/02/28 12:03:29;;;;;;;13.68;9.45;;;8.90;78.70;;;;;;5009106;28;20130;-46
2022/02/28 12:05:54;;;;;;;13.50;10.25;;;8.80;78.50;;;;;;5010522;28;20034;-41
2022/02/28 12:08:37;;;;;;;14.10;9.20;;;8.90;79.20;;;;;;5014017;28;20401;-48
2022/02/28 12:11:22;;;;;;;18.70;9.95;;;8.90;77.60;;;;;;5013415;28;20029;-49
2022/02/28 12:14:02;;;;;;;10.70;9.00;;;8.90;77.30;;;;;;5013341;28;20022;-45
2022/02/28 12:19:28;;;;;;;13.60;9.30;;;8.90;78.20;;;;;;5010636;28;20092;-45
2022/02/28 12:22:05;;;;;;;12.90;8.93;;;8.90;76.90;;;;;;5012660;28;20026;-42
2022/02/28 12:24:54;;;;;;;15.35;10.00;;;8.90;76.20;;;;;;5012689;28;20025;-42
2022/02/28 12:27:36;;;;;;;13.07;9.02;;;8.90;75.50;;;;;;5000175;28;20065;-52
2022/02/28 12:30:36;;;;;;;9.90;8.05;;;8.80;76.00;;;;;;5010173;28;20076;-45
2022/02/28 12:33:02;;;;;;;13.25;8.82;;;8.80;77.00;;;;;;5005741;28;20105;-46
2022/02/28 12:35:38;;;;;;;11.20;8.48;;;8.90;76.90;;;;;;5024566;28;20064;-47
2022/02/28 12:38:03;;;;;;;14.57;8.93;;;8.90;75.20;;;;;;5026720;28;20025;-44
2022/02/28 12:40:30;;;;;;;16.27;10.00;;;8.90;75.80;;;;;;5013024;28;20038;-48
2022/02/28 12:42:56;;;;;;;10.90;8.23;;;9.10;74.80;;;;;;5012233;28;20029;-46
2022/02/28 12:45:22;;;;;;;11.70;7.68;;;9.10;74.50;;;;;;5011776;28;20369;-47